METAR AND TAF INFORMATION
METAR FOR LTAP
ADDS - METARS form results

(1009 UTC 21 January 2019)
Data provider http://aviationweather.gov/metar/data/
 
METAR text: LTAP 210950Z VRB01KT 9999 SCT040 BKN080 02/M02 Q1019 NOSIG RMK RWY23 VRB01KT
Conditions at: LTAP (MERZIFON (TUR-AF, TR) observed 0950 UTC 21 January 2019
Temperature: 2.0°C (36°F)
Dewpoint: -2.0°C (28°F) [RH = 75%]
Pressure (altimeter): 30.09 inches Hg (1019.0 mb)
Winds: variable direction winds at 1 MPH (1 knots; 0.5 m/s)
Visibility: 6 or more miles (10+ km)
Ceiling: 8000 feet AGL
Clouds: scattered clouds at 4000 feet AGL
broken clouds at 8000 feet AGL
Weather: no significant weather observed at this time

METAR text: LTAP 210920Z 00000KT 9999 SCT040 BKN080 02/M02 Q1019 NOSIG RMK RWY23 VRB02KT
Conditions at: LTAP (MERZIFON (TUR-AF, TR) observed 0920 UTC 21 January 2019
Temperature: 2.0°C (36°F)
Dewpoint: -2.0°C (28°F) [RH = 75%]
Pressure (altimeter): 30.09 inches Hg (1019.0 mb)
Winds: calm
Visibility: 6 or more miles (10+ km)
Ceiling: 8000 feet AGL
Clouds: scattered clouds at 4000 feet AGL
broken clouds at 8000 feet AGL
Weather: no significant weather observed at this time

Forecast for: LTAP (MERZIFON (TUR-AF, TR)
Text: TAF LTAP 210440Z 2106/2206 VRB02KT 9999 SCT040
Forecast period: 0600 UTC 21 January 2019 to 0600 UTC 22 January 2019
Forecast type: FROM: standard forecast or significant change
Winds: variable direction winds at 2 MPH (2 knots; 1.0 m/s)
Visibility: 6 or more miles 10+ km)
Ceiling: at least 12,000 feet AGL
Clouds: scattered clouds at 4000 feet AGL
Weather: no significant weather forecast for this period
Text: TEMPO 2119/2123 -SN BKN035 BKN090
Forecast period: 1900 to 2300 UTC 21 January 2019
Forecast type: TEMPORARY: The following changes expected for less than half the time period
Visibility: missing
Ceiling: 3500 feet AGL
Clouds: broken clouds at 3500 feet AGL
broken clouds at 9000 feet AGL
Weather: -SN  (light snow)

 AIRPORT MAP

 RUNWAY INFORMATION
Runway 05 Runway length 9600 ft Runway width 148 ft
Runway elevation 1758 ft Runway displaced threshold 0 ft Runway heading 55
Runway 23 Runway length 9600 ft Runway width 148 ft
Runway elevation 1741 ft Runway displaced threshold 0 ft Runway heading 235

 AIRPORT FREQUENCIES
Type APP Name APP Frequency 122.1 MHZ
Type ATIS Name ATIS Frequency 122.425 MHZ
Type GND Name GND Frequency 121.95 MHZ
Type TWR Name TWR Frequency 122.1 MHZ

 AIRPORT NEAR NAVIGATION AIDS
Type TACAN Name Merzifon Frequency 109300 KHZ



Copyright © 2007-2018 Istanbul Virtual Airlines.All rights reserved.Developed by Arca Erdik and Aykut Alp Kurt.